POP weather

Gregorio Luperon International Airport
Puerto Plata, Puerto Plata Province, Dominican Republic

Public forecast

Using degrees Celsius for public forecast. Weather courtesy of forecast.io.

Current aviation weather report (METAR) for Gregorio Luperon International Airport

Retrieved 2020/02/23 02:00 UTC (1 minute ago):

MDPP 230200Z 00000KT 9999 BKN017 24/23 Q1015

Aviation forecast (TAF) for Gregorio Luperon International Airport

Retrieved 2020-02-23 00:07 UTC (2 hours ago):

TAF MDPP 222200Z 2300/2400 36006KT 9999 SCT017 PROB30 2300/2306 7000 -RA BKN016 OVC070 BECMG 2301/2303 00000KT